If you wish to contribute or participate in the discussions about articles you are invited to join SKYbrary as a registered user

 Actions

Kenai Municipal Airport

From SKYbrary Wiki

PAEN
Airport
ICAO: PAEN
Summary
Name Kenai Municipal Airport
Region North America
Territory Alaska US.gif
Location Kenai
Serving
Coordinates 60° 34' 15.92" N, 151° 14' 13.74" W
Runways
Designator Length Width Surface ROPS
01L/19R 2309 m7,575.459 ft
46 m150.919 ft
ASP yes/yes
01R/19L 610 m2,001.312 ft
18 m59.055 ft
GVL yes/yes
01W/19W 1402 m4,599.738 ft
77 m252.625 ft
WATER-E /


METAR
Observation PAEN 151753Z 07006KT 10SM FEW110 M04/M09 A2922 RMK AO2 SLP898 T10391089 11022 21056 55004
Station Kenai, Kenai Municipal Airport
Date/Time 15 October 2019 17:53:00
Wind direction 70°
Wind speed 06 kts
Lowest cloud amount few clouds
Temperature
Dew point
Humidity 68%
QNH hPa
Weather condition n/a

BS
Tag(s) Bird Strike
BS
Tag(s) Non Avian Wildlife Hazards to Aircraft
CFIT
Tag(s) Altimeter Temperature Error Correction

Kenai Municipal Airport

ICAO: PAEN IATA: ENA

Description

Regional airport serving the city of Kenai.

Climatology

Cool continental climate/Subarctic climate (Köppen climate classification Dfc)

Maps

Terrain

Loading map...

Airport Layout

Loading map...


Accidents & Serious Incidents at or in vicinity of PAEN

None on SKYbrary